Time;durP1;ratioP1;P1;durP2;ratioP2;P2;SDS_P1;SDS_P2;PMS_P1;PMS_P2;Temp;Humidity;BMP_temperature;BMP_pressure;BME280_temperature;BME280_humidity;BME280_pressure;Samples;Min_cycle;Max_cycle;Signal;HPM_P1;HPM_P2
2023/04/03 00:07:04;;;;;;;1.60;0.82;;;5.10;1.00;;;;;;20732267;28;20037;-42
2023/04/03 00:17:05;;;;;;;1.05;0.45;;;5.10;1.00;;;;;;20778862;28;20048;-42
2023/04/03 00:27:06;;;;;;;0.82;0.30;;;5.00;1.00;;;;;;20744662;28;20042;-42
2023/04/03 00:37:07;;;;;;;1.08;0.40;;;4.90;1.00;;;;;;20739136;28;20049;-42
2023/04/03 00:47:13;;;;;;;2.20;0.50;;;4.80;1.00;;;;;;20733593;28;20500;-42
2023/04/03 00:57:16;;;;;;;0.90;0.20;;;4.80;1.00;;;;;;20752941;28;20045;-42
2023/04/03 01:07:20;;;;;;;0.90;0.30;;;4.80;1.00;;;;;;20772529;28;20041;-42
2023/04/03 01:17:48;;;;;;;0.68;0.40;;;4.60;1.00;;;;;;20810828;28;20045;-42
2023/04/03 01:27:50;;;;;;;1.23;0.70;;;4.60;1.00;;;;;;20735617;28;20034;-42
2023/04/03 01:37:51;;;;;;;5.82;0.95;;;4.50;1.00;;;;;;20725113;28;20050;-42
2023/04/03 01:47:52;;;;;;;1.73;0.50;;;4.30;1.00;;;;;;20782508;28;20037;-43
2023/04/03 01:57:53;;;;;;;2.00;0.73;;;4.20;1.00;;;;;;20777019;28;20049;-42
2023/04/03 02:07:54;;;;;;;1.15;0.50;;;4.10;1.00;;;;;;20729863;28;20037;-42
2023/04/03 02:17:55;;;;;;;2.92;1.23;;;4.10;1.00;;;;;;20795811;28;20123;-43
2023/04/03 02:27:56;;;;;;;1.10;0.38;;;3.90;1.00;;;;;;20796396;28;20505;-42
2023/04/03 02:37:57;;;;;;;2.85;0.40;;;3.90;1.00;;;;;;20777669;28;20057;-42
2023/04/03 02:48:00;;;;;;;3.08;1.52;;;3.70;1.00;;;;;;20762769;28;20420;-42
2023/04/03 02:58:01;;;;;;;4.60;1.00;;;3.80;1.00;;;;;;20719993;28;20038;-42
2023/04/03 03:08:02;;;;;;;1.73;0.50;;;3.70;1.00;;;;;;20735191;28;20041;-42
2023/04/03 03:18:03;;;;;;;2.45;1.05;;;3.70;1.00;;;;;;20735978;28;20041;-42
2023/04/03 03:28:05;;;;;;;3.60;0.57;;;3.60;1.00;;;;;;20759790;28;20160;-42
2023/04/03 03:38:06;;;;;;;1.33;0.80;;;3.50;1.00;;;;;;20730852;28;20458;-42
2023/04/03 03:48:07;;;;;;;3.13;0.88;;;3.30;1.00;;;;;;20733230;28;21557;-43
2023/04/03 03:58:08;;;;;;;2.88;1.45;;;3.30;1.00;;;;;;20711836;28;20041;-42
2023/04/03 04:08:09;;;;;;;1.92;0.65;;;3.20;1.00;;;;;;20766959;28;20030;-43
2023/04/03 04:18:10;;;;;;;1.52;0.60;;;3.20;1.00;;;;;;20728776;28;20038;-42
2023/04/03 04:28:12;;;;;;;1.45;0.82;;;3.10;1.00;;;;;;20734377;28;20516;-42
2023/04/03 04:38:13;;;;;;;1.48;0.50;;;3.00;1.00;;;;;;20752260;28;20069;-43
2023/04/03 04:48:14;;;;;;;1.67;0.90;;;3.10;1.00;;;;;;20718537;28;20611;-43
2023/04/03 04:58:15;;;;;;;2.20;1.00;;;3.00;1.00;;;;;;20751019;28;20408;-42
2023/04/03 05:08:17;;;;;;;2.28;1.08;;;2.80;1.00;;;;;;20740399;28;20037;-42
2023/04/03 05:18:18;;;;;;;1.63;0.75;;;2.80;1.00;;;;;;20739378;28;20049;-42
2023/04/03 05:28:19;;;;;;;2.42;0.95;;;2.80;1.00;;;;;;20717764;28;20378;-42
2023/04/03 05:38:20;;;;;;;4.70;1.60;;;2.70;1.00;;;;;;20720248;28;20501;-43
2023/04/03 05:48:21;;;;;;;2.05;0.85;;;2.80;1.00;;;;;;20725865;28;20608;-42
2023/04/03 05:58:22;;;;;;;1.58;0.85;;;2.80;1.00;;;;;;20727413;28;20057;-42
2023/04/03 06:08:23;;;;;;;1.42;0.55;;;2.90;1.00;;;;;;20778972;28;20502;-43
2023/04/03 06:18:24;;;;;;;3.20;1.02;;;3.00;1.00;;;;;;20783270;28;20041;-43
2023/04/03 06:28:25;;;;;;;4.05;1.33;;;3.00;1.00;;;;;;20795272;28;20037;-42
2023/04/03 06:38:26;;;;;;;6.40;1.63;;;3.20;1.00;;;;;;20800549;28;20219;-43
2023/04/03 06:48:27;;;;;;;4.05;1.23;;;3.20;1.00;;;;;;20753514;28;20040;-42
2023/04/03 06:58:29;;;;;;;6.78;1.20;;;3.40;1.00;;;;;;20754910;28;20056;-42
2023/04/03 07:08:30;;;;;;;3.00;1.48;;;3.60;1.00;;;;;;20736457;28;20033;-43
2023/04/03 07:18:32;;;;;;;6.82;1.30;;;3.80;1.00;;;;;;20725531;28;20045;-42
2023/04/03 07:28:33;;;;;;;4.90;1.67;;;4.10;1.00;;;;;;20760393;28;20057;-42
2023/04/03 07:38:35;;;;;;;3.55;0.95;;;4.40;1.00;;;;;;20723259;28;20053;-43
2023/04/03 07:48:36;;;;;;;6.70;0.93;;;4.60;1.00;;;;;;20724371;28;20033;-42
2023/04/03 07:58:38;;;;;;;3.28;0.55;;;5.10;1.00;;;;;;20726119;28;20107;-43
2023/04/03 08:08:39;;;;;;;0.90;0.47;;;5.40;1.00;;;;;;20741022;28;20044;-42
2023/04/03 08:18:40;;;;;;;1.73;1.00;;;5.80;1.00;;;;;;20745689;28;20071;-43
2023/04/03 08:28:42;;;;;;;6.35;0.85;;;6.10;1.00;;;;;;20741364;28;20156;-43
2023/04/03 08:38:43;;;;;;;1.55;0.55;;;6.50;1.00;;;;;;20742335;28;20049;-42
2023/04/03 08:48:44;;;;;;;2.53;1.13;;;6.80;1.00;;;;;;20761942;28;20045;-43
2023/04/03 08:58:52;;;;;;;0.75;0.30;;;7.10;1.00;;;;;;20726290;28;25012;-40
2023/04/03 09:09:32;;;;;;;0.70;0.30;;;7.40;1.00;;;;;;20752048;28;20044;-41
2023/04/03 09:20:10;;;;;;;1.38;0.50;;;8.00;1.00;;;;;;20758457;28;20534;-41
2023/04/03 09:30:17;;;;;;;0.85;0.30;;;8.30;1.00;;;;;;20756986;28;21777;-41
2023/04/03 09:40:25;;;;;;;0.87;0.40;;;8.70;1.00;;;;;;20747873;28;20049;-43
2023/04/03 09:50:26;;;;;;;1.00;0.20;;;9.10;1.00;;;;;;20743869;28;20038;-44
2023/04/03 10:00:37;;;;;;;0.73;0.15;;;9.30;1.00;;;;;;20747181;28;20044;-43
2023/04/03 10:10:39;;;;;;;0.52;0.10;;;9.50;1.00;;;;;;20753279;28;20045;-44
2023/04/03 10:20:46;;;;;;;0.50;0.35;;;9.70;1.00;;;;;;20750921;28;20037;-44
2023/04/03 10:31:12;;;;;;;0.20;0.03;;;9.80;1.00;;;;;;20731019;28;20030;-44
2023/04/03 10:41:20;;;;;;;1.85;0.82;;;10.00;1.00;;;;;;20718752;28;20096;-43
2023/04/03 10:51:41;;;;;;;0.35;0.10;;;10.00;1.00;;;;;;20743042;28;20042;-43
2023/04/03 11:01:45;;;;;;;0.20;0.10;;;10.50;1.00;;;;;;20739495;28;21521;-43
2023/04/03 11:11:49;;;;;;;0.85;0.50;;;10.60;1.00;;;;;;20728674;28;20053;-43
2023/04/03 11:21:56;;;;;;;0.40;0.10;;;10.90;1.00;;;;;;20749377;28;20042;-44
2023/04/03 11:32:06;;;;;;;;;;;11.40;1.00;;;;;;20743889;28;20038;-43
2023/04/03 11:42:36;;;;;;;1.05;0.10;;;12.00;1.00;;;;;;20793362;28;19932;-43
2023/04/03 11:52:40;;;;;;;0.93;0.17;;;12.40;1.00;;;;;;20723818;28;21300;-44
2023/04/03 12:02:41;;;;;;;1.23;0.10;;;12.60;1.00;;;;;;20732790;28;20076;-42
2023/04/03 12:12:54;;;;;;;0.20;0.10;;;13.10;1.00;;;;;;20720284;28;20405;-42
2023/04/03 12:23:28;;;;;;;0.60;0.20;;;12.70;1.00;;;;;;20755169;28;20098;-43
2023/04/03 12:33:37;;;;;;;0.35;0.10;;;12.90;1.00;;;;;;20761537;28;21425;-42
2023/04/03 12:43:59;;;;;;;0.60;0.17;;;13.20;1.00;;;;;;20735221;28;20053;-42
2023/04/03 12:54:04;;;;;;;0.60;0.17;;;13.60;1.00;;;;;;20765241;28;20069;-42
2023/04/03 13:04:05;;;;;;;0.20;0.10;;;13.50;1.00;;;;;;20761925;28;20377;-41
2023/04/03 13:14:20;;;;;;;0.47;0.15;;;13.30;1.00;;;;;;20746841;28;20058;-42
2023/04/03 13:24:21;;;;;;;0.52;0.20;;;14.30;1.00;;;;;;20748513;28;20135;-42
2023/04/03 13:34:25;;;;;;;2.58;1.17;;;14.90;1.00;;;;;;20740738;28;20401;-42
2023/04/03 13:44:35;;;;;;;1.95;0.57;;;15.20;1.00;;;;;;20761242;28;20097;-42
2023/04/03 13:54:38;;;;;;;0.75;0.30;;;14.90;1.00;;;;;;20738600;28;20634;-40
2023/04/03 14:04:44;;;;;;;1.50;0.43;;;15.90;1.00;;;;;;20757656;28;20431;-40
2023/04/03 14:14:46;;;;;;;0.47;0.13;;;15.60;1.00;;;;;;20735739;28;20054;-40
2023/04/03 14:24:49;;;;;;;3.03;0.30;;;14.80;1.00;;;;;;20771063;28;20567;-42
2023/04/03 14:34:51;;;;;;;0.63;0.25;;;13.70;1.00;;;;;;20824224;28;20041;-42
2023/04/03 14:44:52;;;;;;;0.60;0.28;;;13.50;1.00;;;;;;20746304;28;20045;-43
2023/04/03 14:54:54;;;;;;;1.08;0.30;;;12.90;1.00;;;;;;20752101;28;20140;-42
2023/04/03 15:04:56;;;;;;;0.80;0.30;;;12.70;1.00;;;;;;20749703;28;20038;-42
2023/04/03 15:14:57;;;;;;;0.50;0.10;;;12.20;1.00;;;;;;20759147;28;20049;-42
2023/04/03 15:24:58;;;;;;;1.05;0.30;;;12.10;1.00;;;;;;20771731;28;21267;-42
2023/04/03 15:34:59;;;;;;;0.52;0.30;;;11.90;1.00;;;;;;20822177;28;20048;-42
2023/04/03 15:45:00;;;;;;;3.08;0.85;;;11.70;1.00;;;;;;20787387;28;20505;-42
2023/04/03 15:55:02;;;;;;;1.58;1.02;;;11.50;1.00;;;;;;20749819;28;20042;-42
2023/04/03 16:05:05;;;;;;;3.08;0.40;;;11.30;1.00;;;;;;20733933;28;20045;-42
2023/04/03 16:15:07;;;;;;;4.82;1.92;;;11.00;1.00;;;;;;20708645;28;20034;-42
2023/04/03 16:25:09;;;;;;;0.65;0.20;;;10.90;1.00;;;;;;20737757;28;20042;-43
2023/04/03 16:35:11;;;;;;;1.75;0.40;;;10.70;1.00;;;;;;20779614;28;20516;-42
2023/04/03 16:45:12;;;;;;;1.52;0.30;;;10.50;1.00;;;;;;20745730;28;20064;-43
2023/04/03 16:55:13;;;;;;;1.80;0.52;;;10.30;1.00;;;;;;20762042;28;20041;-43
2023/04/03 17:05:14;;;;;;;0.98;0.57;;;10.20;1.00;;;;;;20741717;28;20398;-42
2023/04/03 17:15:15;;;;;;;1.27;0.55;;;9.90;1.00;;;;;;20730980;28;20045;-42
2023/04/03 17:25:16;;;;;;;0.90;0.40;;;9.80;1.00;;;;;;20744536;28;20033;-43
2023/04/03 17:35:17;;;;;;;1.23;0.40;;;9.50;1.00;;;;;;20741747;28;20611;-42
2023/04/03 17:45:19;;;;;;;0.40;0.17;;;9.40;1.00;;;;;;20801505;28;20041;-43
2023/04/03 17:55:20;;;;;;;1.83;0.85;;;9.30;1.00;;;;;;20795031;28;20042;-43
2023/04/03 18:05:21;;;;;;;1.55;0.85;;;9.10;1.00;;;;;;20783016;28;20051;-42
2023/04/03 18:15:25;;;;;;;1.50;0.52;;;9.00;1.00;;;;;;20803333;28;20025;-43
2023/04/03 18:25:26;;;;;;;1.02;0.40;;;8.70;1.00;;;;;;20794036;28;20143;-43
2023/04/03 18:35:28;;;;;;;0.70;0.28;;;8.50;1.00;;;;;;20751697;28;20057;-43
2023/04/03 18:45:29;;;;;;;0.82;0.52;;;8.30;1.00;;;;;;20728416;28;20049;-42
2023/04/03 18:55:30;;;;;;;1.10;0.47;;;8.20;1.00;;;;;;20722217;28;20409;-43
2023/04/03 19:05:32;;;;;;;0.82;0.55;;;8.00;1.00;;;;;;20741260;28;20041;-42
2023/04/03 19:15:33;;;;;;;1.90;0.40;;;7.80;1.00;;;;;;20739109;28;20049;-43
2023/04/03 19:25:35;;;;;;;0.77;0.30;;;7.60;1.00;;;;;;20733924;28;20520;-43
2023/04/03 19:35:39;;;;;;;1.55;0.60;;;7.50;1.00;;;;;;20754790;28;20044;-43
2023/04/03 19:45:40;;;;;;;1.25;0.50;;;7.30;1.00;;;;;;20778398;28;20052;-42
2023/04/03 19:55:44;;;;;;;0.95;0.60;;;7.20;1.00;;;;;;20791935;28;20045;-42
2023/04/03 20:05:45;;;;;;;0.88;0.32;;;7.00;1.00;;;;;;20783047;28;20401;-43
2023/04/03 20:15:47;;;;;;;2.42;0.70;;;6.90;1.00;;;;;;20793237;28;20041;-42
2023/04/03 20:25:48;;;;;;;1.63;0.82;;;6.70;1.00;;;;;;20802085;28;20036;-43
2023/04/03 20:35:50;;;;;;;3.05;1.00;;;6.40;1.00;;;;;;20795246;28;20056;-42
2023/04/03 20:45:51;;;;;;;2.00;0.82;;;6.30;1.00;;;;;;20755998;28;20383;-42
2023/04/03 20:55:58;;;;;;;1.65;0.90;;;6.10;1.00;;;;;;20738589;28;20033;-42
2023/04/03 21:05:59;;;;;;;1.98;1.15;;;6.00;1.00;;;;;;20745388;28;20080;-42
2023/04/03 21:16:01;;;;;;;1.90;0.60;;;5.80;1.00;;;;;;20749759;28;20037;-42
2023/04/03 21:26:02;;;;;;;2.38;1.30;;;5.50;1.00;;;;;;20739316;28;20060;-43
2023/04/03 21:36:03;;;;;;;1.52;0.82;;;5.40;1.00;;;;;;20730938;28;20044;-43
2023/04/03 21:46:04;;;;;;;2.10;0.82;;;5.40;1.00;;;;;;20725375;28;20052;-43
2023/04/03 21:56:06;;;;;;;2.20;0.77;;;5.20;1.00;;;;;;20733438;28;20494;-42
2023/04/03 22:06:12;;;;;;;1.33;0.63;;;5.10;1.00;;;;;;20727926;28;20045;-43
2023/04/03 22:16:13;;;;;;;1.47;0.70;;;5.10;1.00;;;;;;20738687;28;20038;-43
2023/04/03 22:26:14;;;;;;;1.65;0.93;;;4.90;1.00;;;;;;20724886;28;20497;-43
2023/04/03 22:36:15;;;;;;;5.22;1.05;;;4.80;1.00;;;;;;20771409;28;20048;-43
2023/04/03 22:46:17;;;;;;;1.30;0.57;;;4.70;1.00;;;;;;20737039;28;20497;-43
2023/04/03 22:56:20;;;;;;;2.08;0.95;;;4.60;1.00;;;;;;20722350;28;20616;-43
2023/04/03 23:06:21;;;;;;;1.83;0.63;;;4.50;1.00;;;;;;20712152;28;20041;-43
2023/04/03 23:16:22;;;;;;;2.58;0.80;;;4.30;1.00;;;;;;20733340;28;20030;-43
2023/04/03 23:26:24;;;;;;;8.90;1.55;;;4.20;1.00;;;;;;20788211;28;20029;-43
2023/04/03 23:36:25;;;;;;;2.72;1.10;;;4.00;1.00;;;;;;20783083;28;20050;-42
2023/04/03 23:46:26;;;;;;;0.93;0.40;;;4.00;1.00;;;;;;20787229;28;20029;-42
2023/04/03 23:56:27;;;;;;;2.30;1.42;;;4.00;1.00;;;;;;20747290;28;20782;-42
